sensor_id;sensor_type;location;lat;lon;timestamp;pressure;altitude;pressure_sealevel;temperature;humidity
64544;BME280;50936;51.660;5.616;2023-02-28T00:01:32;102727.63;;;-0.77;100.00
64544;BME280;50936;51.660;5.616;2023-02-28T00:03:59;102725.84;;;-0.80;100.00
64544;BME280;50936;51.660;5.616;2023-02-28T00:06:26;102715.19;;;-0.83;100.00
64544;BME280;50936;51.660;5.616;2023-02-28T00:08:53;102720.50;;;-0.83;100.00
64544;BME280;50936;51.660;5.616;2023-02-28T00:11:21;102725.81;;;-0.83;100.00
64544;BME280;50936;51.660;5.616;2023-02-28T00:13:48;102717.84;;;-0.86;100.00
64544;BME280;50936;51.660;5.616;2023-02-28T00:16:20;102718.69;;;-0.90;100.00
64544;BME280;50936;51.660;5.616;2023-02-28T00:18:49;102720.44;;;-0.92;100.00
64544;BME280;50936;51.660;5.616;2023-02-28T00:21:18;102721.31;;;-0.93;100.00
64544;BME280;50936;51.660;5.616;2023-02-28T00:23:45;102709.81;;;-0.95;100.00
64544;BME280;50936;51.660;5.616;2023-02-28T00:26:12;102714.22;;;-0.95;100.00
64544;BME280;50936;51.660;5.616;2023-02-28T00:28:43;102717.78;;;-0.95;100.00
64544;BME280;50936;51.660;5.616;2023-02-28T00:31:10;102713.34;;;-0.96;100.00
64544;BME280;50936;51.660;5.616;2023-02-28T00:33:37;102723.94;;;-0.96;100.00
64544;BME280;50936;51.660;5.616;2023-02-28T00:36:06;102716.88;;;-0.97;100.00
64544;BME280;50936;51.660;5.616;2023-02-28T00:38:37;102715.09;;;-0.98;100.00
64544;BME280;50936;51.660;5.616;2023-02-28T00:41:06;102715.94;;;-0.99;100.00
64544;BME280;50936;51.660;5.616;2023-02-28T00:43:35;102711.53;;;-1.00;100.00
64544;BME280;50936;51.660;5.616;2023-02-28T00:46:04;102712.41;;;-1.00;100.00
64544;BME280;50936;51.660;5.616;2023-02-28T00:48:32;102708.88;;;-1.02;100.00
64544;BME280;50936;51.660;5.616;2023-02-28T00:50:59;102711.50;;;-1.03;100.00
64544;BME280;50936;51.660;5.616;2023-02-28T00:53:27;102710.59;;;-1.05;100.00
64544;BME280;50936;51.660;5.616;2023-02-28T00:55:56;102712.34;;;-1.09;100.00
64544;BME280;50936;51.660;5.616;2023-02-28T00:58:24;102710.59;;;-1.10;100.00
64544;BME280;50936;51.660;5.616;2023-02-28T01:00:52;102714.06;;;-1.12;100.00
64544;BME280;50936;51.660;5.616;2023-02-28T01:03:20;102714.06;;;-1.14;100.00
64544;BME280;50936;51.660;5.616;2023-02-28T01:05:49;102712.28;;;-1.15;100.00
64544;BME280;50936;51.660;5.616;2023-02-28T01:08:16;102716.69;;;-1.16;100.00
64544;BME280;50936;51.660;5.616;2023-02-28T01:10:43;102724.66;;;-1.17;100.00
64544;BME280;50936;51.660;5.616;2023-02-28T01:13:10;102729.03;;;-1.18;100.00
64544;BME280;50936;51.660;5.616;2023-02-28T01:15:41;102730.78;;;-1.20;100.00
64544;BME280;50936;51.660;5.616;2023-02-28T01:18:11;102723.72;;;-1.21;100.00
64544;BME280;50936;51.660;5.616;2023-02-28T01:20:39;102732.53;;;-1.22;100.00
64544;BME280;50936;51.660;5.616;2023-02-28T01:23:06;102729.00;;;-1.24;100.00
64544;BME280;50936;51.660;5.616;2023-02-28T01:25:37;102732.50;;;-1.25;100.00
64544;BME280;50936;51.660;5.616;2023-02-28T01:28:05;102734.31;;;-1.24;100.00
64544;BME280;50936;51.660;5.616;2023-02-28T01:30:33;102738.75;;;-1.23;100.00
64544;BME280;50936;51.660;5.616;2023-02-28T01:33:00;102734.31;;;-1.19;100.00
64544;BME280;50936;51.660;5.616;2023-02-28T01:35:27;102737.00;;;-1.18;100.00
64544;BME280;50936;51.660;5.616;2023-02-28T01:37:54;102735.25;;;-1.17;100.00
64544;BME280;50936;51.660;5.616;2023-02-28T01:40:21;102734.31;;;-1.19;100.00
64544;BME280;50936;51.660;5.616;2023-02-28T01:42:48;102732.59;;;-1.19;100.00
64544;BME280;50936;51.660;5.616;2023-02-28T01:45:27;102721.97;;;-1.19;100.00
64544;BME280;50936;51.660;5.616;2023-02-28T01:48:02;102721.09;;;-1.16;100.00
64544;BME280;50936;51.660;5.616;2023-02-28T01:50:39;102716.69;;;-1.14;100.00
64544;BME280;50936;51.660;5.616;2023-02-28T01:53:13;102711.41;;;-1.12;100.00
64544;BME280;50936;51.660;5.616;2023-02-28T01:55:47;102712.34;;;-1.09;100.00
64544;BME280;50936;51.660;5.616;2023-02-28T01:58:19;102716.75;;;-1.06;100.00
64544;BME280;50936;51.660;5.616;2023-02-28T02:00:48;102714.16;;;-1.02;100.00
64544;BME280;50936;51.660;5.616;2023-02-28T02:03:18;102715.09;;;-0.98;100.00
64544;BME280;50936;51.660;5.616;2023-02-28T02:05:46;102715.09;;;-0.93;100.00
64544;BME280;50936;51.660;5.616;2023-02-28T02:08:17;102715.16;;;-0.89;100.00
64544;BME280;50936;51.660;5.616;2023-02-28T02:10:50;102710.78;;;-0.85;100.00
64544;BME280;50936;51.660;5.616;2023-02-28T02:16:19;102700.22;;;-0.78;100.00
64544;BME280;50936;51.660;5.616;2023-02-28T02:18:58;102709.06;;;-0.75;100.00
64544;BME280;50936;51.660;5.616;2023-02-28T02:22:21;102701.13;;;-0.72;100.00
64544;BME280;50936;51.660;5.616;2023-02-28T02:25:21;102710.00;;;-0.69;100.00
64544;BME280;50936;51.660;5.616;2023-02-28T02:34:14;102699.50;;;-0.56;100.00
64544;BME280;50936;51.660;5.616;2023-02-28T02:36:47;102706.56;;;-0.54;100.00
64544;BME280;50936;51.660;5.616;2023-02-28T02:39:36;102697.75;;;-0.50;100.00
64544;BME280;50936;51.660;5.616;2023-02-28T02:42:15;102698.69;;;-0.43;100.00
64544;BME280;50936;51.660;5.616;2023-02-28T02:44:55;102703.13;;;-0.37;100.00
64544;BME280;50936;51.660;5.616;2023-02-28T02:47:29;102697.84;;;-0.34;100.00
64544;BME280;50936;51.660;5.616;2023-02-28T02:50:01;102696.09;;;-0.31;100.00
64544;BME280;50936;51.660;5.616;2023-02-28T02:52:38;102707.63;;;-0.29;100.00
64544;BME280;50936;51.660;5.616;2023-02-28T02:55:11;102695.22;;;-0.28;100.00
64544;BME280;50936;51.660;5.616;2023-02-28T02:57:45;102692.56;;;-0.28;100.00
64544;BME280;50936;51.660;5.616;2023-02-28T03:00:18;102699.66;;;-0.27;100.00
64544;BME280;50936;51.660;5.616;2023-02-28T03:02:50;102697.91;;;-0.25;100.00
64544;BME280;50936;51.660;5.616;2023-02-28T03:05:26;102700.53;;;-0.27;100.00
64544;BME280;50936;51.660;5.616;2023-02-28T03:07:59;102700.53;;;-0.27;100.00
64544;BME280;50936;51.660;5.616;2023-02-28T03:10:36;102697.00;;;-0.24;100.00
64544;BME280;50936;51.660;5.616;2023-02-28T03:22:09;102695.25;;;-0.19;100.00
64544;BME280;50936;51.660;5.616;2023-02-28T03:24:58;102699.69;;;-0.15;100.00
64544;BME280;50936;51.660;5.616;2023-02-28T03:33:25;102699.75;;;-0.09;100.00
64544;BME280;50936;51.660;5.616;2023-02-28T03:35:59;102696.19;;;-0.08;100.00
64544;BME280;50936;51.660;5.616;2023-02-28T03:38:35;102710.38;;;-0.06;100.00
64544;BME280;50936;51.660;5.616;2023-02-28T03:41:16;102707.72;;;-0.04;100.00
64544;BME280;50936;51.660;5.616;2023-02-28T03:43:55;102703.31;;;-0.04;100.00
64544;BME280;50936;51.660;5.616;2023-02-28T03:46:29;102708.63;;;-0.01;100.00
64544;BME280;50936;51.660;5.616;2023-02-28T03:49:12;102706.84;;;0.02;100.00
64544;BME280;50936;51.660;5.616;2023-02-28T03:51:46;102702.44;;;0.04;100.00
64544;BME280;50936;51.660;5.616;2023-02-28T03:54:21;102710.44;;;0.07;100.00
64544;BME280;50936;51.660;5.616;2023-02-28T03:57:14;102705.13;;;0.10;100.00
64544;BME280;50936;51.660;5.616;2023-02-28T03:59:55;102707.78;;;0.10;100.00
64544;BME280;50936;51.660;5.616;2023-02-28T04:02:27;102703.38;;;0.12;100.00
64544;BME280;50936;51.660;5.616;2023-02-28T04:04:54;102700.72;;;0.15;100.00
64544;BME280;50936;51.660;5.616;2023-02-28T04:07:21;102696.31;;;0.17;100.00
64544;BME280;50936;51.660;5.616;2023-02-28T04:09:48;102694.53;;;0.19;100.00
64544;BME280;50936;51.660;5.616;2023-02-28T04:12:15;102697.22;;;0.22;100.00
64544;BME280;50936;51.660;5.616;2023-02-28T04:14:42;102694.53;;;0.25;100.00
64544;BME280;50936;51.660;5.616;2023-02-28T04:17:08;102696.34;;;0.26;100.00
64544;BME280;50936;51.660;5.616;2023-02-28T04:19:35;102696.34;;;0.32;100.00
64544;BME280;50936;51.660;5.616;2023-02-28T04:22:02;102697.25;;;0.36;100.00
64544;BME280;50936;51.660;5.616;2023-02-28T04:24:29;102699.00;;;0.40;100.00
64544;BME280;50936;51.660;5.616;2023-02-28T04:26:57;102701.69;;;0.42;100.00
64544;BME280;50936;51.660;5.616;2023-02-28T04:29:27;102703.47;;;0.43;100.00
64544;BME280;50936;51.660;5.616;2023-02-28T04:31:57;102703.44;;;0.46;100.00
64544;BME280;50936;51.660;5.616;2023-02-28T04:34:27;102705.25;;;0.47;100.00
64544;BME280;50936;51.660;5.616;2023-02-28T04:36:56;102707.00;;;0.51;100.00
64544;BME280;50936;51.660;5.616;2023-02-28T04:39:38;102703.50;;;0.52;100.00
64544;BME280;50936;51.660;5.616;2023-02-28T04:42:06;102701.72;;;0.54;100.00
64544;BME280;50936;51.660;5.616;2023-02-28T04:44:33;102704.38;;;0.55;100.00
64544;BME280;50936;51.660;5.616;2023-02-28T04:47:00;102710.59;;;0.59;100.00
64544;BME280;50936;51.660;5.616;2023-02-28T04:49:27;102697.31;;;0.61;100.00
64544;BME280;50936;51.660;5.616;2023-02-28T04:51:53;102708.81;;;0.61;100.00
64544;BME280;50936;51.660;5.616;2023-02-28T04:54:20;102713.25;;;0.64;100.00
64544;BME280;50936;51.660;5.616;2023-02-28T04:56:47;102718.59;;;0.67;100.00
64544;BME280;50936;51.660;5.616;2023-02-28T04:59:16;102722.09;;;0.66;100.00
64544;BME280;50936;51.660;5.616;2023-02-28T05:01:48;102718.59;;;0.67;100.00
64544;BME280;50936;51.660;5.616;2023-02-28T05:04:16;102714.13;;;0.67;100.00
64544;BME280;50936;51.660;5.616;2023-02-28T05:06:44;102721.25;;;0.68;100.00
64544;BME280;50936;51.660;5.616;2023-02-28T05:09:11;102719.47;;;0.67;100.00
64544;BME280;50936;51.660;5.616;2023-02-28T05:11:38;102721.22;;;0.65;100.00
64544;BME280;50936;51.660;5.616;2023-02-28T05:14:11;102717.69;;;0.63;100.00
64544;BME280;50936;51.660;5.616;2023-02-28T05:16:39;102721.22;;;0.59;100.00
64544;BME280;50936;51.660;5.616;2023-02-28T05:19:07;102728.31;;;0.54;100.00
64544;BME280;50936;51.660;5.616;2023-02-28T05:21:40;102720.31;;;0.54;100.00
64544;BME280;50936;51.660;5.616;2023-02-28T05:24:14;102715.91;;;0.50;100.00
64544;BME280;50936;51.660;5.616;2023-02-28T05:26:42;102715.88;;;0.47;100.00
64544;BME280;50936;51.660;5.616;2023-02-28T05:29:09;102721.19;;;0.44;100.00
64544;BME280;50936;51.660;5.616;2023-02-28T05:31:36;102710.56;;;0.41;100.00
64544;BME280;50936;51.660;5.616;2023-02-28T05:34:05;102720.31;;;0.38;100.00
64544;BME280;50936;51.660;5.616;2023-02-28T05:36:33;102720.28;;;0.37;100.00
64544;BME280;50936;51.660;5.616;2023-02-28T05:39:00;102717.63;;;0.35;100.00
64544;BME280;50936;51.660;5.616;2023-02-28T05:41:27;102714.06;;;0.36;100.00
64544;BME280;50936;51.660;5.616;2023-02-28T05:43:54;102722.06;;;0.38;100.00
64544;BME280;50936;51.660;5.616;2023-02-28T05:46:21;102726.50;;;0.37;100.00
64544;BME280;50936;51.660;5.616;2023-02-28T05:48:48;102721.16;;;0.37;100.00
64544;BME280;50936;51.660;5.616;2023-02-28T05:51:16;102724.72;;;0.40;100.00
64544;BME280;50936;51.660;5.616;2023-02-28T05:53:44;102731.81;;;0.41;100.00
64544;BME280;50936;51.660;5.616;2023-02-28T05:56:11;102726.50;;;0.41;100.00
64544;BME280;50936;51.660;5.616;2023-02-28T05:58:38;102738.91;;;0.42;100.00
64544;BME280;50936;51.660;5.616;2023-02-28T06:01:32;102742.47;;;0.41;100.00
64544;BME280;50936;51.660;5.616;2023-02-28T06:04:02;102741.53;;;0.35;100.00
64544;BME280;50936;51.660;5.616;2023-02-28T06:06:31;102739.75;;;0.33;100.00
64544;BME280;50936;51.660;5.616;2023-02-28T06:09:04;102743.31;;;0.33;100.00
64544;BME280;50936;51.660;5.616;2023-02-28T06:11:32;102744.19;;;0.32;100.00
64544;BME280;50936;51.660;5.616;2023-02-28T06:14:01;102747.72;;;0.34;100.00
64544;BME280;50936;51.660;5.616;2023-02-28T06:16:30;102743.31;;;0.33;100.00
64544;BME280;50936;51.660;5.616;2023-02-28T06:19:02;102745.97;;;0.33;100.00
64544;BME280;50936;51.660;5.616;2023-02-28T06:21:30;102751.28;;;0.33;100.00
64544;BME280;50936;51.660;5.616;2023-02-28T06:23:58;102755.72;;;0.31;100.00
64544;BME280;50936;51.660;5.616;2023-02-28T06:26:26;102753.94;;;0.30;100.00
64544;BME280;50936;51.660;5.616;2023-02-28T06:28:53;102751.25;;;0.27;100.00
64544;BME280;50936;51.660;5.616;2023-02-28T06:31:20;102753.94;;;0.26;100.00
64544;BME280;50936;51.660;5.616;2023-02-28T06:33:48;102761.00;;;0.25;100.00
64544;BME280;50936;51.660;5.616;2023-02-28T06:36:16;102749.50;;;0.26;100.00
64544;BME280;50936;51.660;5.616;2023-02-28T06:38:44;102756.56;;;0.27;100.00
64544;BME280;50936;51.660;5.616;2023-02-28T06:41:11;102752.16;;;0.28;100.00
64544;BME280;50936;51.660;5.616;2023-02-28T06:43:41;102752.16;;;0.31;100.00
64544;BME280;50936;51.660;5.616;2023-02-28T06:46:16;102753.06;;;0.31;100.00
64544;BME280;50936;51.660;5.616;2023-02-28T06:48:44;102761.03;;;0.31;100.00
64544;BME280;50936;51.660;5.616;2023-02-28T06:51:17;102761.94;;;0.33;100.00
64544;BME280;50936;51.660;5.616;2023-02-28T06:53:49;102774.34;;;0.44;100.00
64544;BME280;50936;51.660;5.616;2023-02-28T06:56:17;102771.72;;;0.54;100.00
64544;BME280;50936;51.660;5.616;2023-02-28T06:58:49;102756.69;;;0.69;100.00
64544;BME280;50936;51.660;5.616;2023-02-28T07:01:17;102762.03;;;0.70;100.00
64544;BME280;50936;51.660;5.616;2023-02-28T07:03:45;102763.81;;;0.68;100.00
64544;BME280;50936;51.660;5.616;2023-02-28T07:06:13;102757.56;;;0.62;100.00
64544;BME280;50936;51.660;5.616;2023-02-28T07:08:40;102770.84;;;0.54;100.00
64544;BME280;50936;51.660;5.616;2023-02-28T07:11:07;102768.19;;;0.48;100.00
64544;BME280;50936;51.660;5.616;2023-02-28T07:13:35;102776.16;;;0.48;100.00
64544;BME280;50936;51.660;5.616;2023-02-28T07:16:05;102776.16;;;0.51;100.00
64544;BME280;50936;51.660;5.616;2023-02-28T07:18:34;102775.34;;;0.78;100.00
64544;BME280;50936;51.660;5.616;2023-02-28T07:21:03;102774.50;;;0.96;100.00
64544;BME280;50936;51.660;5.616;2023-02-28T07:23:33;102772.75;;;1.10;100.00
64544;BME280;50936;51.660;5.616;2023-02-28T07:26:00;102786.06;;;1.49;100.00
64544;BME280;50936;51.660;5.616;2023-02-28T07:28:27;102791.31;;;1.93;99.67
64544;BME280;50936;51.660;5.616;2023-02-28T07:30:54;102784.16;;;2.06;96.07
64544;BME280;50936;51.660;5.616;2023-02-28T07:33:21;102793.06;;;2.02;93.18
64544;BME280;50936;51.660;5.616;2023-02-28T07:35:48;102788.63;;;1.93;92.46
64544;BME280;50936;51.660;5.616;2023-02-28T07:38:15;102791.34;;;1.84;91.78
64544;BME280;50936;51.660;5.616;2023-02-28T07:40:42;102794.00;;;1.75;92.24
64544;BME280;50936;51.660;5.616;2023-02-28T07:43:09;102803.78;;;1.70;91.08
64544;BME280;50936;51.660;5.616;2023-02-28T07:45:36;102801.13;;;1.64;89.91
64544;BME280;50936;51.660;5.616;2023-02-28T07:48:03;102794.91;;;1.60;90.43
64544;BME280;50936;51.660;5.616;2023-02-28T07:50:30;102802.88;;;1.65;88.54
64544;BME280;50936;51.660;5.616;2023-02-28T07:52:58;102794.00;;;1.72;89.20
64544;BME280;50936;51.660;5.616;2023-02-28T07:55:25;102794.00;;;1.78;88.40
64544;BME280;50936;51.660;5.616;2023-02-28T07:57:52;102807.31;;;1.84;86.16
64544;BME280;50936;51.660;5.616;2023-02-28T08:00:20;102801.13;;;1.85;83.22
64544;BME280;50936;51.660;5.616;2023-02-28T08:02:48;102800.19;;;1.88;82.60
64544;BME280;50936;51.660;5.616;2023-02-28T08:05:15;102806.44;;;1.85;77.83
64544;BME280;50936;51.660;5.616;2023-02-28T08:07:42;102802.91;;;1.83;77.23
64544;BME280;50936;51.660;5.616;2023-02-28T08:10:09;102809.97;;;1.81;75.71
64544;BME280;50936;51.660;5.616;2023-02-28T08:12:36;102809.97;;;1.81;73.67
64544;BME280;50936;51.660;5.616;2023-02-28T08:15:03;102802.00;;;1.84;71.18
64544;BME280;50936;51.660;5.616;2023-02-28T08:17:31;102802.91;;;1.82;71.02
64544;BME280;50936;51.660;5.616;2023-02-28T08:20:00;102806.44;;;1.79;71.43
64544;BME280;50936;51.660;5.616;2023-02-28T08:22:27;102798.44;;;1.79;69.82
64544;BME280;50936;51.660;5.616;2023-02-28T08:24:54;102802.88;;;1.80;68.92
64544;BME280;50936;51.660;5.616;2023-02-28T08:27:21;102805.56;;;1.77;68.99
64544;BME280;50936;51.660;5.616;2023-02-28T08:29:48;102800.22;;;1.76;67.89
64544;BME280;50936;51.660;5.616;2023-02-28T08:32:15;102801.13;;;1.73;64.06
64544;BME280;50936;51.660;5.616;2023-02-28T08:34:55;102796.66;;;1.72;66.36
64544;BME280;50936;51.660;5.616;2023-02-28T08:37:21;102796.69;;;1.70;67.52
64544;BME280;50936;51.660;5.616;2023-02-28T08:39:48;102794.91;;;1.71;65.57
64544;BME280;50936;51.660;5.616;2023-02-28T08:42:15;102790.47;;;1.73;65.63
64544;BME280;50936;51.660;5.616;2023-02-28T08:44:42;102791.34;;;1.73;64.94
64544;BME280;50936;51.660;5.616;2023-02-28T08:47:10;102786.94;;;1.74;65.55
64544;BME280;50936;51.660;5.616;2023-02-28T08:49:37;102792.25;;;1.72;66.45
64544;BME280;50936;51.660;5.616;2023-02-28T08:52:04;102794.00;;;1.72;64.83
64544;BME280;50936;51.660;5.616;2023-02-28T08:54:31;102799.34;;;1.72;64.57
64544;BME280;50936;51.660;5.616;2023-02-28T08:56:59;102794.91;;;1.72;63.90
64544;BME280;50936;51.660;5.616;2023-02-28T08:59:28;102800.22;;;1.77;65.10
64544;BME280;50936;51.660;5.616;2023-02-28T09:01:55;102805.56;;;1.80;65.60
64544;BME280;50936;51.660;5.616;2023-02-28T09:04:22;102807.31;;;1.84;64.37
64544;BME280;50936;51.660;5.616;2023-02-28T09:06:50;102809.06;;;1.88;62.25
64544;BME280;50936;51.660;5.616;2023-02-28T09:09:17;102806.41;;;1.91;60.64
64544;BME280;50936;51.660;5.616;2023-02-28T09:11:44;102811.75;;;1.91;61.27
64544;BME280;50936;51.660;5.616;2023-02-28T09:14:11;102801.97;;;1.92;59.59
64544;BME280;50936;51.660;5.616;2023-02-28T09:16:38;102807.28;;;1.90;60.08
64544;BME280;50936;51.660;5.616;2023-02-28T09:19:05;102806.41;;;1.91;60.42
64544;BME280;50936;51.660;5.616;2023-02-28T09:21:32;102806.41;;;1.88;60.09
64544;BME280;50936;51.660;5.616;2023-02-28T09:23:59;102802.88;;;1.88;60.20
64544;BME280;50936;51.660;5.616;2023-02-28T09:26:27;102801.09;;;1.91;58.59
64544;BME280;50936;51.660;5.616;2023-02-28T09:29:08;102799.31;;;1.90;58.68
64544;BME280;50936;51.660;5.616;2023-02-28T09:31:35;102806.41;;;1.88;58.34
64544;BME280;50936;51.660;5.616;2023-02-28T09:34:03;102805.53;;;1.91;59.00
64544;BME280;50936;51.660;5.616;2023-02-28T09:36:31;102805.53;;;1.92;57.69
64544;BME280;50936;51.660;5.616;2023-02-28T09:39:10;102802.88;;;1.92;56.30
64544;BME280;50936;51.660;5.616;2023-02-28T09:41:44;102800.19;;;1.96;58.50
64544;BME280;50936;51.660;5.616;2023-02-28T09:47:00;102798.38;;;2.07;55.67
64544;BME280;50936;51.660;5.616;2023-02-28T09:49:40;102798.38;;;2.10;54.63
64544;BME280;50936;51.660;5.616;2023-02-28T09:52:28;102799.25;;;2.12;55.04
64544;BME280;50936;51.660;5.616;2023-02-28T09:55:11;102791.25;;;2.17;52.62
64544;BME280;50936;51.660;5.616;2023-02-28T09:58:23;102801.00;;;2.16;52.26
64544;BME280;50936;51.660;5.616;2023-02-28T10:03:43;102789.47;;;2.19;52.62
64544;BME280;50936;51.660;5.616;2023-02-28T10:06:19;102791.22;;;2.24;52.49
64544;BME280;50936;51.660;5.616;2023-02-28T10:08:55;102783.22;;;2.27;53.35
64544;BME280;50936;51.660;5.616;2023-02-28T10:11:28;102784.06;;;2.34;52.51
64544;BME280;50936;51.660;5.616;2023-02-28T10:14:12;102790.28;;;2.41;51.59
64544;BME280;50936;51.660;5.616;2023-02-28T10:17:03;102789.34;;;2.46;51.22
64544;BME280;50936;51.660;5.616;2023-02-28T10:19:58;102784.81;;;2.65;51.35
64544;BME280;50936;51.660;5.616;2023-02-28T10:22:38;102779.22;;;3.05;50.77
64544;BME280;50936;51.660;5.616;2023-02-28T10:25:23;102779.00;;;3.36;48.89
64544;BME280;50936;51.660;5.616;2023-02-28T10:28:13;102771.75;;;3.47;47.90
64544;BME280;50936;51.660;5.616;2023-02-28T10:30:45;102778.78;;;3.61;48.08
64544;BME280;50936;51.660;5.616;2023-02-28T10:36:04;102781.63;;;4.28;45.79
64544;BME280;50936;51.660;5.616;2023-02-28T10:38:38;102783.09;;;4.53;44.70
64544;BME280;50936;51.660;5.616;2023-02-28T10:41:26;102782.59;;;4.87;44.51
64544;BME280;50936;51.660;5.616;2023-02-28T10:44:22;102774.91;;;5.23;44.02
64544;BME280;50936;51.660;5.616;2023-02-28T10:46:50;102774.00;;;5.26;42.94
64544;BME280;50936;51.660;5.616;2023-02-28T10:49:27;102774.81;;;5.29;42.75
64544;BME280;50936;51.660;5.616;2023-02-28T10:51:58;102774.69;;;5.38;43.31
64544;BME280;50936;51.660;5.616;2023-02-28T10:54:30;102770.97;;;5.46;42.63
64544;BME280;50936;51.660;5.616;2023-02-28T10:57:28;102762.22;;;5.34;41.94
64544;BME280;50936;51.660;5.616;2023-02-28T11:00:14;102764.81;;;5.40;43.02
64544;BME280;50936;51.660;5.616;2023-02-28T11:02:43;102770.06;;;5.95;41.05
64544;BME280;50936;51.660;5.616;2023-02-28T11:05:34;102761.34;;;6.32;39.93
64544;BME280;50936;51.660;5.616;2023-02-28T11:08:15;102753.56;;;6.60;40.72
64544;BME280;50936;51.660;5.616;2023-02-28T11:10:58;102759.25;;;6.85;39.16
64544;BME280;50936;51.660;5.616;2023-02-28T11:13:35;102760.94;;;6.89;38.61
64544;BME280;50936;51.660;5.616;2023-02-28T11:16:09;102755.84;;;6.77;38.40
64544;BME280;50936;51.660;5.616;2023-02-28T11:18:42;102757.91;;;6.66;39.92
64544;BME280;50936;51.660;5.616;2023-02-28T11:21:29;102757.53;;;6.81;39.80
64544;BME280;50936;51.660;5.616;2023-02-28T11:24:16;102750.13;;;6.92;39.92
64544;BME280;50936;51.660;5.616;2023-02-28T11:26:59;102746.22;;;7.06;39.26
64544;BME280;50936;51.660;5.616;2023-02-28T11:29:28;102745.84;;;7.21;38.52
64544;BME280;50936;51.660;5.616;2023-02-28T11:32:12;102743.13;;;7.23;39.11
64544;BME280;50936;51.660;5.616;2023-02-28T11:34:41;102744.94;;;7.22;38.70
64544;BME280;50936;51.660;5.616;2023-02-28T11:37:13;102736.28;;;7.09;39.03
64544;BME280;50936;51.660;5.616;2023-02-28T11:39:43;102740.22;;;6.96;38.70
64544;BME280;50936;51.660;5.616;2023-02-28T11:56:32;102732.56;;;7.15;38.14
64544;BME280;50936;51.660;5.616;2023-02-28T12:05:23;102727.03;;;7.21;38.06
64544;BME280;50936;51.660;5.616;2023-02-28T12:10:48;102720.72;;;7.24;38.49
64544;BME280;50936;51.660;5.616;2023-02-28T12:13:26;102718.50;;;7.40;37.67
64544;BME280;50936;51.660;5.616;2023-02-28T12:19:19;102709.38;;;7.78;37.87
64544;BME280;50936;51.660;5.616;2023-02-28T12:27:57;102703.41;;;8.00;37.10
64544;BME280;50936;51.660;5.616;2023-02-28T12:30:34;102700.66;;;8.01;37.00
64544;BME280;50936;51.660;5.616;2023-02-28T12:33:06;102696.88;;;8.08;37.23
64544;BME280;50936;51.660;5.616;2023-02-28T12:35:51;102690.31;;;8.19;35.75
64544;BME280;50936;51.660;5.616;2023-02-28T12:38:27;102679.84;;;8.08;35.93
64544;BME280;50936;51.660;5.616;2023-02-28T12:41:03;102693.69;;;7.94;38.03
64544;BME280;50936;51.660;5.616;2023-02-28T12:43:44;102691.75;;;7.99;36.56
64544;BME280;50936;51.660;5.616;2023-02-28T12:46:21;102691.78;;;7.98;37.03
64544;BME280;50936;51.660;5.616;2023-02-28T12:49:06;102684.25;;;8.10;36.38
64544;BME280;50936;51.660;5.616;2023-02-28T12:51:40;102678.59;;;8.20;35.81
64544;BME280;50936;51.660;5.616;2023-02-28T12:54:24;102675.94;;;8.18;36.40
64544;BME280;50936;51.660;5.616;2023-02-28T12:59:42;102677.19;;;8.06;36.64
64544;BME280;50936;51.660;5.616;2023-02-28T13:08:27;102660.22;;;8.34;36.50
64544;BME280;50936;51.660;5.616;2023-02-28T13:11:05;102657.00;;;8.51;35.90
64544;BME280;50936;51.660;5.616;2023-02-28T13:13:47;102640.06;;;8.47;36.46
64544;BME280;50936;51.660;5.616;2023-02-28T13:16:14;102653.97;;;8.62;36.71
64544;BME280;50936;51.660;5.616;2023-02-28T13:18:46;102649.31;;;8.94;35.30
64544;BME280;50936;51.660;5.616;2023-02-28T13:21:26;102654.44;;;9.03;35.36
64544;BME280;50936;51.660;5.616;2023-02-28T13:24:03;102642.66;;;9.05;34.61
64544;BME280;50936;51.660;5.616;2023-02-28T13:29:21;;;;9.00;
64544;BME280;50936;51.660;5.616;2023-02-28T13:37:36;102643.34;;;9.12;34.48
64544;BME280;50936;51.660;5.616;2023-02-28T13:42:48;102634.66;;;9.29;34.35
64544;BME280;50936;51.660;5.616;2023-02-28T13:50:34;102628.25;;;9.57;33.53
64544;BME280;50936;51.660;5.616;2023-02-28T13:55:53;102625.44;;;9.35;34.04
64544;BME280;50936;51.660;5.616;2023-02-28T14:01:31;102631.91;;;9.31;34.73
64544;BME280;50936;51.660;5.616;2023-02-28T14:04:48;102632.78;;;9.56;34.47
64544;BME280;50936;51.660;5.616;2023-02-28T14:07:38;102632.97;;;9.75;33.82
64544;BME280;50936;51.660;5.616;2023-02-28T14:10:25;102625.16;;;9.68;34.31
64544;BME280;50936;51.660;5.616;2023-02-28T14:18:01;102616.47;;;9.83;32.99
64544;BME280;50936;51.660;5.616;2023-02-28T14:20:32;102617.97;;;9.67;33.11
64544;BME280;50936;51.660;5.616;2023-02-28T14:23:15;102623.72;;;9.57;33.35
64544;BME280;50936;51.660;5.616;2023-02-28T14:34:52;102610.59;;;9.72;34.12
64544;BME280;50936;51.660;5.616;2023-02-28T14:37:30;102619.53;;;9.74;34.38
64544;BME280;50936;51.660;5.616;2023-02-28T14:40:04;102620.22;;;9.79;34.05
64544;BME280;50936;51.660;5.616;2023-02-28T14:42:34;102609.84;;;9.68;34.00
64544;BME280;50936;51.660;5.616;2023-02-28T14:45:04;102613.75;;;9.59;34.11
64544;BME280;50936;51.660;5.616;2023-02-28T14:47:33;102616.69;;;9.53;34.53
64544;BME280;50936;51.660;5.616;2023-02-28T14:50:03;102624.06;;;9.48;34.76
64544;BME280;50936;51.660;5.616;2023-02-28T14:52:32;102618.56;;;9.51;34.38
64544;BME280;50936;51.660;5.616;2023-02-28T14:55:10;102616.69;;;9.53;34.99
64544;BME280;50936;51.660;5.616;2023-02-28T14:57:54;102605.66;;;9.59;33.94
64544;BME280;50936;51.660;5.616;2023-02-28T15:00:31;102602.81;;;9.64;33.83
64544;BME280;50936;51.660;5.616;2023-02-28T15:03:01;102616.69;;;9.53;34.17
64544;BME280;50936;51.660;5.616;2023-02-28T15:05:51;102609.81;;;9.44;34.11
64544;BME280;50936;51.660;5.616;2023-02-28T15:08:23;102603.00;;;9.34;34.53
64544;BME280;50936;51.660;5.616;2023-02-28T15:10:58;102608.31;;;9.36;34.41